createdAt,value
2023-05-17T00:01:56.738Z,99637.97
2023-05-17T00:04:23.933Z,99630.91
2023-05-17T00:06:51.504Z,99639.63
2023-05-17T00:09:18.691Z,99634.47
2023-05-17T00:11:46.016Z,99634.47
2023-05-17T00:14:13.867Z,99628.75
2023-05-17T00:16:59.963Z,99635.28
2023-05-17T00:19:27.064Z,99631.47
2023-05-17T00:21:54.204Z,99635.84
2023-05-17T00:24:21.244Z,99632.31
2023-05-17T00:26:48.373Z,99636.94
2023-05-17T00:29:15.691Z,99636.41
2023-05-17T00:31:42.976Z,99640.75
2023-05-17T00:34:10.293Z,99652.47
2023-05-17T00:36:37.774Z,99643.47
2023-05-17T00:39:04.811Z,99648.34
2023-05-17T00:41:31.940Z,99653.00
2023-05-17T00:43:59.024Z,99650.03
2023-05-17T00:46:26.366Z,99657.34
2023-05-17T00:48:54.434Z,99659.00
2023-05-17T00:51:22.807Z,99664.69
2023-05-17T00:53:50.741Z,99658.44
2023-05-17T00:56:18.378Z,99663.06
2023-05-17T00:58:46.830Z,99654.06
2023-05-17T01:01:14.017Z,99654.38
2023-05-17T01:03:46.549Z,99662.25
2023-05-17T01:06:14.514Z,99659.00
2023-05-17T01:08:42.460Z,99661.97
2023-05-17T01:11:15.038Z,99666.59
2023-05-17T01:14:01.374Z,99668.25
2023-05-17T01:16:37.439Z,99668.25
2023-05-17T01:19:23.313Z,99672.91
2023-05-17T01:22:15.993Z,99673.97
2023-05-17T01:25:01.366Z,99684.03
2023-05-17T01:27:30.089Z,99686.25
2023-05-17T01:29:58.178Z,99687.88
2023-05-17T01:32:26.202Z,99681.03
2023-05-17T01:34:53.523Z,99675.59
2023-05-17T01:37:20.602Z,99676.94
2023-05-17T01:39:48.003Z,99678.56
2023-05-17T01:42:22.426Z,99684.28
2023-05-17T01:45:11.618Z,99681.56
2023-05-17T01:48:11.933Z,99686.75
2023-05-17T01:50:41.125Z,99684.56
2023-05-17T01:53:11.845Z,99685.09
2023-05-17T01:56:20.662Z,99690.56
2023-05-17T01:58:49.077Z,99687.03
2023-05-17T02:01:18.442Z,99683.50
2023-05-17T02:03:49.976Z,99683.78
2023-05-17T02:06:17.863Z,99692.75
2023-05-17T02:08:44.962Z,99693.03
2023-05-17T02:11:12.947Z,99690.84
2023-05-17T02:13:40.629Z,99695.75
2023-05-17T02:16:09.137Z,99693.84
2023-05-17T02:18:38.012Z,99688.41
2023-05-17T02:21:05.468Z,99695.22
2023-05-17T02:23:32.621Z,99690.31
2023-05-17T02:25:59.671Z,99696.03
2023-05-17T02:28:28.027Z,99703.94
2023-05-17T02:30:56.651Z,99702.84
2023-05-17T02:33:23.926Z,99704.75
2023-05-17T02:35:51.267Z,99704.19
2023-05-17T02:38:20.345Z,99705.00
2023-05-17T02:40:47.559Z,99702.28
2023-05-17T02:43:14.659Z,99707.75
2023-05-17T02:45:44.043Z,99715.91
2023-05-17T02:48:14.113Z,99703.63
2023-05-17T02:50:41.310Z,99704.16
2023-05-17T02:53:08.428Z,99712.34
2023-05-17T02:55:35.834Z,99709.84
2023-05-17T02:58:03.986Z,99712.53
2023-05-17T03:00:32.149Z,99709.78
2023-05-17T03:02:59.364Z,99712.53
2023-05-17T03:05:26.643Z,99718.25
2023-05-17T03:07:54.034Z,99718.78
2023-05-17T03:10:21.116Z,99715.22
2023-05-17T03:12:48.925Z,99712.72
2023-05-17T03:15:18.973Z,99713.28
2023-05-17T03:17:46.794Z,99712.69
2023-05-17T03:20:15.574Z,99717.84
2023-05-17T03:22:43.496Z,99714.22
2023-05-17T03:25:10.601Z,99719.13
2023-05-17T03:27:38.058Z,99723.97
2023-05-17T03:30:06.508Z,99723.91
2023-05-17T03:32:35.687Z,99722.22
2023-05-17T03:35:02.925Z,99727.09
2023-05-17T03:37:31.367Z,99735.47
2023-05-17T03:39:58.678Z,99732.72
2023-05-17T03:42:25.782Z,99726.38
2023-05-17T03:44:52.923Z,99726.84
2023-05-17T03:47:24.029Z,99730.88
2023-05-17T03:49:51.562Z,99737.13
2023-05-17T03:52:18.850Z,99730.50
2023-05-17T03:54:48.167Z,99734.81
2023-05-17T03:57:16.501Z,99738.84
2023-05-17T03:59:43.628Z,99735.22
2023-05-17T04:02:11.041Z,99737.38
2023-05-17T04:04:38.558Z,99730.72
2023-05-17T04:07:05.664Z,99739.69
2023-05-17T04:09:35.166Z,99736.09
2023-05-17T04:12:02.478Z,99741.22
2023-05-17T04:14:30.164Z,99742.00
2023-05-17T04:16:58.570Z,99747.63
2023-05-17T04:19:26.051Z,99753.03
2023-05-17T04:21:53.276Z,99756.53
2023-05-17T04:24:23.223Z,99760.56
2023-05-17T04:26:50.614Z,99755.84
2023-05-17T04:29:19.618Z,99754.94
2023-05-17T04:31:49.129Z,99755.97
2023-05-17T04:34:18.080Z,99752.59
2023-05-17T04:36:45.694Z,99749.78
2023-05-17T04:39:12.857Z,99754.06
2023-05-17T04:41:40.631Z,99757.25
2023-05-17T04:44:11.400Z,99755.25
2023-05-17T04:46:38.658Z,99756.22
2023-05-17T04:49:07.627Z,99764.59
2023-05-17T04:51:35.008Z,99761.69
2023-05-17T04:54:06.954Z,99759.41
2023-05-17T04:56:36.660Z,99771.31
2023-05-17T04:59:07.379Z,99769.00
2023-05-17T05:01:35.518Z,99766.19
2023-05-17T05:04:07.365Z,99766.38
2023-05-17T05:06:40.948Z,99768.41
2023-05-17T05:09:08.868Z,99767.81
2023-05-17T05:11:37.812Z,99764.66
2023-05-17T05:14:06.172Z,99761.31
2023-05-17T05:16:33.847Z,99771.41
2023-05-17T05:19:01.452Z,99773.56
2023-05-17T05:21:29.558Z,99763.59
2023-05-17T05:23:57.144Z,99764.94
2023-05-17T05:26:24.280Z,99759.03
2023-05-17T05:28:52.140Z,99763.81
2023-05-17T05:31:19.307Z,99764.25
2023-05-17T05:33:52.195Z,99765.16
2023-05-17T05:36:19.549Z,99766.50
2023-05-17T05:38:48.711Z,99760.78
2023-05-17T05:41:16.752Z,99767.53
2023-05-17T05:43:44.086Z,99767.94
2023-05-17T05:46:11.567Z,99767.84
2023-05-17T05:48:41.979Z,99777.09
2023-05-17T05:51:09.833Z,99762.34
2023-05-17T05:53:40.774Z,99770.47
2023-05-17T05:56:08.154Z,99765.78
2023-05-17T05:58:35.240Z,99768.16
2023-05-17T06:01:06.158Z,99774.66
2023-05-17T06:03:33.696Z,99770.69
2023-05-17T06:06:00.965Z,99775.13
2023-05-17T06:08:28.293Z,99770.00
2023-05-17T06:10:55.577Z,99775.19
2023-05-17T06:13:22.937Z,99773.00
2023-05-17T06:15:50.348Z,99777.38
2023-05-17T06:18:17.699Z,99775.13
2023-05-17T06:20:44.863Z,99778.38
2023-05-17T06:23:11.938Z,99772.56
2023-05-17T06:25:40.633Z,99784.06
2023-05-17T06:28:10.343Z,99775.19
2023-05-17T06:30:37.722Z,99782.19
2023-05-17T06:33:05.106Z,99783.31
2023-05-17T06:35:43.728Z,99786.56
2023-05-17T06:38:19.289Z,99779.81
2023-05-17T06:40:46.489Z,99776.06
2023-05-17T06:43:13.591Z,99779.81
2023-05-17T06:45:40.849Z,99775.94
2023-05-17T06:48:08.104Z,99784.59
2023-05-17T06:50:37.589Z,99776.22
2023-05-17T06:53:05.579Z,99782.22
2023-05-17T06:55:32.891Z,99775.28
2023-05-17T06:58:00.659Z,99775.50
2023-05-17T07:00:28.869Z,99776.50
2023-05-17T07:02:56.702Z,99780.25
2023-05-17T07:05:24.735Z,99780.84
2023-05-17T07:07:52.369Z,99782.50
2023-05-17T07:10:19.541Z,99785.63
2023-05-17T07:12:47.281Z,99779.19
2023-05-17T07:15:14.444Z,99777.25
2023-05-17T07:17:41.609Z,99783.56
2023-05-17T07:20:09.483Z,99786.31
2023-05-17T07:22:37.591Z,99777.44
2023-05-17T07:25:06.152Z,99775.03
2023-05-17T07:27:33.833Z,99763.25
2023-05-17T07:30:01.944Z,99770.44
2023-05-17T07:32:34.130Z,99768.69
2023-05-17T07:35:03.247Z,99775.66
2023-05-17T07:37:34.383Z,99770.03
2023-05-17T07:40:02.240Z,99765.03
2023-05-17T07:42:33.771Z,99771.84
2023-05-17T07:45:01.191Z,99775.09
2023-05-17T07:47:34.240Z,99764.72
2023-05-17T07:50:01.638Z,99767.81
2023-05-17T07:52:31.765Z,99770.25
2023-05-17T07:54:58.891Z,99764.28
2023-05-17T07:57:29.902Z,99762.50
2023-05-17T07:59:57.254Z,99760.75
2023-05-17T08:02:24.429Z,99755.06
2023-05-17T08:04:53.130Z,99756.38
2023-05-17T08:07:20.335Z,99767.25
2023-05-17T08:09:48.499Z,99753.34
2023-05-17T08:12:15.608Z,99766.97
2023-05-17T08:14:42.904Z,99761.63
2023-05-17T08:17:10.243Z,99763.06
2023-05-17T08:19:37.584Z,99761.78
2023-05-17T08:22:04.940Z,99755.31
2023-05-17T08:24:32.079Z,99763.28
2023-05-17T08:26:59.160Z,99764.56
2023-05-17T08:29:26.446Z,99756.13
2023-05-17T08:31:55.270Z,99756.00
2023-05-17T08:34:22.603Z,99756.47
2023-05-17T08:36:49.961Z,99750.97
2023-05-17T08:39:20.212Z,99756.66
2023-05-17T08:41:48.525Z,99752.75
2023-05-17T08:44:19.562Z,99750.31
2023-05-17T08:46:53.931Z,99753.72
2023-05-17T08:49:23.614Z,99760.88
2023-05-17T08:51:53.383Z,99743.66
2023-05-17T08:54:23.364Z,99747.72
2023-05-17T08:56:54.415Z,99741.69
2023-05-17T08:59:22.810Z,99746.72
2023-05-17T09:01:53.571Z,99748.66
2023-05-17T09:04:21.893Z,99750.72
2023-05-17T09:06:50.857Z,99747.63
2023-05-17T09:09:19.043Z,99751.06
2023-05-17T09:11:46.370Z,99741.44
2023-05-17T09:14:17.404Z,99742.72
2023-05-17T09:16:44.680Z,99737.22
2023-05-17T09:19:17.709Z,99746.78
2023-05-17T09:21:48.246Z,99738.00
2023-05-17T09:24:19.050Z,99738.97
2023-05-17T09:26:50.425Z,99734.72
2023-05-17T09:29:17.667Z,99724.50
2023-05-17T09:31:45.056Z,99738.31
2023-05-17T09:34:12.418Z,99727.91
2023-05-17T09:36:44.088Z,99730.97
2023-05-17T09:39:13.872Z,99717.75
2023-05-17T09:41:47.930Z,99727.00
2023-05-17T09:44:16.953Z,99711.69
2023-05-17T09:46:49.021Z,99705.84
2023-05-17T09:49:18.082Z,99710.88
2023-05-17T09:51:47.734Z,99725.63
2023-05-17T09:54:15.565Z,99724.16
2023-05-17T09:56:43.330Z,99715.06
2023-05-17T09:59:15.446Z,99721.19
2023-05-17T10:01:46.006Z,99718.22
2023-05-17T10:04:14.393Z,99710.53
2023-05-17T10:06:51.457Z,99716.88
2023-05-17T10:09:22.545Z,99718.63
2023-05-17T10:11:53.235Z,99717.63
2023-05-17T10:14:35.124Z,99714.03
2023-05-17T10:17:03.553Z,99710.13
2023-05-17T10:19:31.499Z,99698.50
2023-05-17T10:22:11.055Z,99705.78
2023-05-17T10:24:48.159Z,99718.16
2023-05-17T10:27:16.400Z,99706.78
2023-05-17T10:29:45.888Z,99698.94
2023-05-17T10:32:17.095Z,99704.00
2023-05-17T10:34:45.822Z,99704.13
2023-05-17T10:37:15.385Z,99703.78
2023-05-17T10:39:46.902Z,99699.19
2023-05-17T10:42:17.232Z,99698.50
2023-05-17T10:44:44.481Z,99703.84
2023-05-17T10:47:12.332Z,99701.66
2023-05-17T10:49:45.237Z,99693.66
2023-05-17T10:52:15.766Z,99691.59
2023-05-17T10:54:44.673Z,99676.53
2023-05-17T10:57:39.057Z,99691.22
2023-05-17T11:00:20.997Z,99690.88
2023-05-17T11:02:49.193Z,99690.19
2023-05-17T11:05:27.604Z,99683.38
2023-05-17T11:08:17.900Z,99682.81
2023-05-17T11:11:14.236Z,99676.94
2023-05-17T11:13:46.518Z,99669.53
2023-05-17T11:16:18.071Z,99679.81
2023-05-17T11:18:56.263Z,99680.16
2023-05-17T11:21:28.337Z,99665.84
2023-05-17T11:23:59.054Z,99676.81
2023-05-17T11:26:29.490Z,99669.31
2023-05-17T11:29:02.444Z,99672.66
2023-05-17T11:31:34.869Z,99665.06
2023-05-17T11:34:05.924Z,99659.31
2023-05-17T11:36:49.708Z,99653.09
2023-05-17T11:39:21.709Z,99649.25
2023-05-17T11:41:51.052Z,99645.94
2023-05-17T11:44:32.131Z,99648.53
2023-05-17T11:47:04.179Z,99644.59
2023-05-17T11:49:36.417Z,99637.78
2023-05-17T11:52:07.715Z,99636.66
2023-05-17T11:54:35.511Z,99647.97
2023-05-17T11:57:04.509Z,99647.97
2023-05-17T11:59:41.641Z,99632.34
2023-05-17T12:02:09.574Z,99629.19
2023-05-17T12:04:38.296Z,99617.50
2023-05-17T12:07:10.621Z,99611.94
2023-05-17T12:09:39.474Z,99591.63
2023-05-17T12:12:06.780Z,99598.00
2023-05-17T12:14:34.169Z,99614.78
2023-05-17T12:17:04.068Z,99621.13
2023-05-17T12:19:32.723Z,99606.53
2023-05-17T12:22:13.873Z,99600.84
2023-05-17T12:24:42.837Z,99610.81
2023-05-17T12:27:12.918Z,99613.00
2023-05-17T12:29:40.271Z,99607.25
2023-05-17T12:32:10.363Z,99604.63
2023-05-17T12:34:38.598Z,99595.31
2023-05-17T12:37:10.921Z,99591.69
2023-05-17T12:39:40.000Z,99601.09
2023-05-17T12:42:09.566Z,99581.06
2023-05-17T12:44:36.896Z,99587.66
2023-05-17T12:47:04.220Z,99587.91
2023-05-17T12:49:31.342Z,99585.09
2023-05-17T12:52:05.397Z,99580.59
2023-05-17T12:54:33.315Z,99583.91
2023-05-17T12:57:12.568Z,99582.84
2023-05-17T12:59:50.796Z,99577.56
2023-05-17T13:02:20.526Z,99571.97
2023-05-17T13:04:48.043Z,99568.81
2023-05-17T13:07:24.914Z,99576.09
2023-05-17T13:09:52.677Z,99563.06
2023-05-17T13:12:21.818Z,99563.38
2023-05-17T13:14:54.917Z,99573.78
2023-05-17T13:17:34.244Z,99575.63
2023-05-17T13:20:02.418Z,99566.84
2023-05-17T13:22:32.462Z,99556.28
2023-05-17T13:24:59.458Z,99568.31
2023-05-17T13:27:26.487Z,99564.72
2023-05-17T13:29:53.720Z,99571.53
2023-05-17T13:32:21.306Z,99564.47
2023-05-17T13:34:48.597Z,99555.28
2023-05-17T13:37:15.638Z,99561.97
2023-05-17T13:39:42.825Z,99563.16
2023-05-17T13:42:13.226Z,99562.47
2023-05-17T13:44:40.880Z,99561.91
2023-05-17T13:47:08.418Z,99565.75
2023-05-17T13:49:36.298Z,99568.31
2023-05-17T13:52:03.882Z,99560.94
2023-05-17T13:54:31.263Z,99566.06
2023-05-17T13:56:58.432Z,99569.81
2023-05-17T13:59:26.324Z,99550.19
2023-05-17T14:01:54.037Z,99560.97
2023-05-17T14:04:21.524Z,99551.06
2023-05-17T14:06:51.134Z,99548.47
2023-05-17T14:09:20.495Z,99548.16
2023-05-17T14:11:47.679Z,99547.69
2023-05-17T14:14:14.967Z,99533.16
2023-05-17T14:16:42.135Z,99539.38
2023-05-17T14:19:09.272Z,99540.50
2023-05-17T14:21:36.637Z,99541.97
2023-05-17T14:24:03.906Z,99540.50
2023-05-17T14:26:31.061Z,99548.22
2023-05-17T14:28:58.099Z,99537.47
2023-05-17T14:31:28.360Z,99534.56
2023-05-17T14:33:55.966Z,99534.91
2023-05-17T14:36:22.965Z,99535.47
2023-05-17T14:38:50.073Z,99528.44
2023-05-17T14:41:18.666Z,99532.19
2023-05-17T14:43:46.322Z,99532.75
2023-05-17T14:46:14.920Z,99530.09
2023-05-17T14:48:42.079Z,99526.19
2023-05-17T14:51:09.462Z,99514.38
2023-05-17T14:53:36.770Z,99516.03
2023-05-17T14:56:03.985Z,99521.53
2023-05-17T14:58:31.132Z,99519.72
2023-05-17T15:01:05.557Z,99530.72
2023-05-17T15:03:35.543Z,99528.75
2023-05-17T15:06:06.940Z,99519.44
2023-05-17T15:08:36.061Z,99528.66
2023-05-17T15:11:03.547Z,99531.41
2023-05-17T15:13:30.674Z,99518.13
2023-05-17T15:15:57.686Z,99517.94
2023-05-17T15:18:24.957Z,99519.16
2023-05-17T15:20:52.130Z,99519.22
2023-05-17T15:23:19.124Z,99513.28
2023-05-17T15:25:46.655Z,99524.59
2023-05-17T15:28:14.278Z,99517.09
2023-05-17T15:30:42.270Z,99516.09
2023-05-17T15:33:10.052Z,99527.53
2023-05-17T15:35:41.542Z,99520.16
2023-05-17T15:38:08.744Z,99520.88
2023-05-17T15:40:35.948Z,99518.09
2023-05-17T15:43:03.063Z,99521.56
2023-05-17T15:45:30.362Z,99518.16
2023-05-17T15:47:57.930Z,99514.81
2023-05-17T15:50:25.264Z,99520.94
2023-05-17T15:52:52.618Z,99511.53
2023-05-17T15:55:19.754Z,99523.97
2023-05-17T15:57:47.735Z,99520.66
2023-05-17T16:00:15.148Z,99523.75
2023-05-17T16:02:42.246Z,99513.31
2023-05-17T16:05:09.751Z,99520.25
2023-05-17T16:07:37.099Z,99515.47
2023-05-17T16:10:04.458Z,99514.13
2023-05-17T16:12:31.717Z,99520.22
2023-05-17T16:14:58.991Z,99517.00
2023-05-17T16:17:27.398Z,99519.47
2023-05-17T16:19:54.681Z,99510.41
2023-05-17T16:22:22.191Z,99523.94
2023-05-17T16:24:53.835Z,99516.78
2023-05-17T16:27:21.980Z,99517.06
2023-05-17T16:29:49.689Z,99518.81
2023-05-17T16:32:17.138Z,99522.59
2023-05-17T16:34:44.826Z,99513.13
2023-05-17T16:37:12.083Z,99518.78
2023-05-17T16:39:39.544Z,99520.66
2023-05-17T16:42:06.824Z,99515.28
2023-05-17T16:44:52.951Z,99519.25
2023-05-17T16:47:23.928Z,99520.69
2023-05-17T16:49:51.064Z,99517.38
2023-05-17T16:52:19.167Z,99508.44
2023-05-17T16:54:46.624Z,99500.75
2023-05-17T16:57:15.065Z,99512.59
2023-05-17T16:59:42.435Z,99507.97
2023-05-17T17:02:09.812Z,99511.47
2023-05-17T17:04:36.966Z,99516.09
2023-05-17T17:07:04.476Z,99518.88
2023-05-17T17:09:31.793Z,99510.16
2023-05-17T17:11:59.402Z,99519.63
2023-05-17T17:14:27.502Z,99521.22
2023-05-17T17:16:54.744Z,99521.63
2023-05-17T17:19:21.974Z,99527.22
2023-05-17T17:21:49.336Z,99524.16
2023-05-17T17:24:16.458Z,99523.84
2023-05-17T17:26:44.059Z,99533.75
2023-05-17T17:29:11.252Z,99531.09
2023-05-17T17:31:38.535Z,99536.75
2023-05-17T17:34:05.712Z,99534.88
2023-05-17T17:36:32.841Z,99527.84
2023-05-17T17:38:59.883Z,99536.34
2023-05-17T17:41:27.114Z,99528.13
2023-05-17T17:44:09.153Z,99529.47
2023-05-17T17:46:36.644Z,99541.50
2023-05-17T17:49:04.032Z,99536.16
2023-05-17T17:51:31.529Z,99537.50
2023-05-17T17:53:58.644Z,99540.56
2023-05-17T17:56:26.333Z,99540.75
2023-05-17T17:58:56.430Z,99541.72
2023-05-17T18:01:23.729Z,99542.69
2023-05-17T18:03:50.884Z,99535.38
2023-05-17T18:06:19.553Z,99544.91
2023-05-17T18:08:46.904Z,99544.91
2023-05-17T18:11:14.211Z,99543.28
2023-05-17T18:13:41.384Z,99544.69
2023-05-17T18:16:08.754Z,99541.13
2023-05-17T18:18:37.545Z,99548.22
2023-05-17T18:21:04.736Z,99547.06
2023-05-17T18:23:31.782Z,99543.63
2023-05-17T18:25:59.153Z,99536.97
2023-05-17T18:28:38.046Z,99540.47
2023-05-17T18:31:09.321Z,99540.13
2023-05-17T18:33:36.523Z,99538.94
2023-05-17T18:36:03.879Z,99537.28
2023-05-17T18:38:31.037Z,99539.19
2023-05-17T18:40:58.092Z,99546.75
2023-05-17T18:43:25.540Z,99542.00
2023-05-17T18:45:52.569Z,99540.50
2023-05-17T18:48:22.214Z,99546.13
2023-05-17T18:50:49.596Z,99549.66
2023-05-17T18:53:16.890Z,99540.69
2023-05-17T18:55:44.044Z,99544.19
2023-05-17T18:58:11.302Z,99545.13
2023-05-17T19:00:38.436Z,99543.31
2023-05-17T19:03:05.543Z,99536.31
2023-05-17T19:05:32.827Z,99543.03
2023-05-17T19:08:00.088Z,99550.25
2023-05-17T19:10:27.644Z,99545.69
2023-05-17T19:12:54.859Z,99544.69
2023-05-17T19:15:22.052Z,99542.56
2023-05-17T19:17:49.338Z,99550.94
2023-05-17T19:20:16.786Z,99551.03
2023-05-17T19:22:43.775Z,99553.69
2023-05-17T19:25:10.913Z,99556.75
2023-05-17T19:27:38.185Z,99557.16
2023-05-17T19:30:05.557Z,99552.81
2023-05-17T19:32:33.317Z,99557.28
2023-05-17T19:35:01.648Z,99555.78
2023-05-17T19:37:32.011Z,99559.31
2023-05-17T19:39:59.276Z,99560.72
2023-05-17T19:42:26.808Z,99558.59
2023-05-17T19:44:54.195Z,99555.84
2023-05-17T19:47:21.388Z,99567.13
2023-05-17T19:49:48.871Z,99561.75
2023-05-17T19:52:16.031Z,99561.25
2023-05-17T19:54:43.158Z,99557.00
2023-05-17T19:57:10.910Z,99557.59
2023-05-17T19:59:39.476Z,99559.03
2023-05-17T20:02:07.074Z,99558.25
2023-05-17T20:04:34.384Z,99567.91
2023-05-17T20:07:01.619Z,99565.47
2023-05-17T20:09:30.443Z,99563.84
2023-05-17T20:11:58.032Z,99564.16
2023-05-17T20:14:26.628Z,99561.53
2023-05-17T20:16:54.504Z,99553.91
2023-05-17T20:19:21.865Z,99557.75
2023-05-17T20:21:49.136Z,99560.81
2023-05-17T20:24:16.434Z,99562.75
2023-05-17T20:26:46.695Z,99557.25
2023-05-17T20:29:13.754Z,99552.28
2023-05-17T20:31:41.129Z,99550.97
2023-05-17T20:34:08.268Z,99554.00
2023-05-17T20:36:35.340Z,99554.31
2023-05-17T20:39:02.346Z,99550.25
2023-05-17T20:41:29.611Z,99551.94
2023-05-17T20:43:56.775Z,99556.09
2023-05-17T20:46:24.188Z,99557.22
2023-05-17T20:48:53.827Z,99560.78
2023-05-17T20:51:22.491Z,99553.66
2023-05-17T20:53:49.661Z,99556.50
2023-05-17T20:56:19.446Z,99553.03
2023-05-17T20:58:47.958Z,99555.28
2023-05-17T21:01:15.141Z,99549.09
2023-05-17T21:03:43.544Z,99548.38
2023-05-17T21:06:11.107Z,99561.00
2023-05-17T21:08:38.807Z,99553.50
2023-05-17T21:11:06.011Z,99551.06
2023-05-17T21:13:33.279Z,99552.25
2023-05-17T21:16:00.958Z,99557.53
2023-05-17T21:18:28.152Z,99560.06
2023-05-17T21:20:55.621Z,99558.69
2023-05-17T21:23:22.719Z,99563.66
2023-05-17T21:25:49.922Z,99556.25
2023-05-17T21:28:17.358Z,99550.72
2023-05-17T21:30:44.411Z,99549.81
2023-05-17T21:33:11.985Z,99561.06
2023-05-17T21:35:39.156Z,99567.16
2023-05-17T21:38:06.408Z,99559.28
2023-05-17T21:40:33.757Z,99551.06
2023-05-17T21:43:01.417Z,99561.44
2023-05-17T21:45:28.747Z,99564.41
2023-05-17T21:47:55.979Z,99558.84
2023-05-17T21:50:23.180Z,99561.59
2023-05-17T21:52:50.583Z,99554.47
2023-05-17T21:55:17.955Z,99555.00
2023-05-17T21:57:45.031Z,99548.19
2023-05-17T22:00:15.529Z,99553.88
2023-05-17T22:02:46.750Z,99552.25
2023-05-17T22:05:14.155Z,99553.38
2023-05-17T22:07:41.262Z,99559.16
2023-05-17T22:10:09.940Z,99552.66
2023-05-17T22:12:38.492Z,99550.47
2023-05-17T22:15:06.436Z,99556.25
2023-05-17T22:17:47.883Z,99554.41
2023-05-17T22:20:22.972Z,99557.97
2023-05-17T22:22:50.163Z,99552.28
2023-05-17T22:25:17.824Z,99552.56
2023-05-17T22:27:45.815Z,99558.41
2023-05-17T22:30:13.356Z,99557.69
2023-05-17T22:32:40.864Z,99552.50
2023-05-17T22:35:08.356Z,99557.75
2023-05-17T22:37:36.617Z,99550.72
2023-05-17T22:40:06.430Z,99553.75
2023-05-17T22:42:33.329Z,99549.69
2023-05-17T22:45:00.774Z,99554.13
2023-05-17T22:47:27.918Z,99554.72
2023-05-17T22:49:55.054Z,99552.56
2023-05-17T22:52:22.671Z,99552.34
2023-05-17T22:54:49.704Z,99541.09
2023-05-17T22:57:17.193Z,99546.38
2023-05-17T22:59:44.267Z,99561.31
2023-05-17T23:02:14.416Z,99551.97
2023-05-17T23:04:42.010Z,99558.25
2023-05-17T23:07:10.202Z,99556.63
2023-05-17T23:09:40.978Z,99564.03
2023-05-17T23:12:14.131Z,99556.13
2023-05-17T23:14:42.598Z,99554.78
2023-05-17T23:17:10.050Z,99552.66
2023-05-17T23:19:37.581Z,99561.16
2023-05-17T23:22:06.464Z,99549.16
2023-05-17T23:24:38.937Z,99560.38
2023-05-17T23:27:10.354Z,99558.03
2023-05-17T23:29:37.999Z,99555.88
2023-05-17T23:32:05.357Z,99556.75
2023-05-17T23:34:32.725Z,99551.88
2023-05-17T23:36:59.906Z,99555.13
2023-05-17T23:39:27.065Z,99556.03
2023-05-17T23:41:54.254Z,99560.97
2023-05-17T23:44:21.480Z,99559.34
2023-05-17T23:46:48.510Z,99565.34
2023-05-17T23:49:16.690Z,99565.94
2023-05-17T23:51:44.047Z,99564.00
2023-05-17T23:54:12.410Z,99569.19
2023-05-17T23:56:39.729Z,99564.28
2023-05-17T23:59:06.842Z,99566.47
